Mangham, Louisiana
Current Conditions -  °F | °C
As of 5:53 PM on Sunday 23 Nov 2014 (Local Time) from KMLU Reporting Station
Clear Clear  
Wind Chill: 66°   Ceiling: Unl
Heat Index: 66°   Visibility: 10mi
Dew Point: 59°   Wind: 10mph
Humidity: 78%   Direction: 200°SSW
Pressure: 29.5"   Gusts: NA
Location:  32.31°N, 91.77°W
Report Text: KMLU 232353Z 20009KT 10SM CLR 19/15 A2950 RMK AO2 SLP988 60001 T01890150 10200 20172 53010
Loading
Personal Weather Stations






























Interactive Weather Map New forecast layout! Learn more

10-Day Weather Forecast

Advertisements
Track Severe Weather on mobile